sensor_id;sensor_type;location;lat;lon;timestamp;P1;durP1;ratioP1;P2;durP2;ratioP2
7517;SDS011;3800;48.922;9.444;2023-07-29T00:00:12;4.47;;;4.07;;
7517;SDS011;3800;48.922;9.444;2023-07-29T00:02:40;4.43;;;4.00;;
7517;SDS011;3800;48.922;9.444;2023-07-29T00:05:08;4.40;;;4.00;;
7517;SDS011;3800;48.922;9.444;2023-07-29T00:07:37;6.80;;;4.27;;
7517;SDS011;3800;48.922;9.444;2023-07-29T00:10:05;5.27;;;4.27;;
7517;SDS011;3800;48.922;9.444;2023-07-29T00:12:35;8.83;;;4.60;;
7517;SDS011;3800;48.922;9.444;2023-07-29T00:15:03;5.27;;;4.40;;
7517;SDS011;3800;48.922;9.444;2023-07-29T00:17:32;7.87;;;4.33;;
7517;SDS011;3800;48.922;9.444;2023-07-29T00:20:00;4.77;;;4.30;;
7517;SDS011;3800;48.922;9.444;2023-07-29T00:22:28;6.00;;;4.10;;
7517;SDS011;3800;48.922;9.444;2023-07-29T00:24:57;4.80;;;4.30;;
7517;SDS011;3800;48.922;9.444;2023-07-29T00:27:26;4.73;;;4.07;;
7517;SDS011;3800;48.922;9.444;2023-07-29T00:29:54;5.47;;;4.00;;
7517;SDS011;3800;48.922;9.444;2023-07-29T00:32:22;4.47;;;4.07;;
7517;SDS011;3800;48.922;9.444;2023-07-29T00:34:50;6.20;;;3.97;;
7517;SDS011;3800;48.922;9.444;2023-07-29T00:37:19;8.90;;;4.40;;
7517;SDS011;3800;48.922;9.444;2023-07-29T00:39:47;3.97;;;3.57;;
7517;SDS011;3800;48.922;9.444;2023-07-29T00:42:15;5.67;;;3.67;;
7517;SDS011;3800;48.922;9.444;2023-07-29T00:44:44;5.20;;;3.60;;
7517;SDS011;3800;48.922;9.444;2023-07-29T00:47:12;4.10;;;2.87;;
7517;SDS011;3800;48.922;9.444;2023-07-29T00:49:40;2.93;;;2.27;;
7517;SDS011;3800;48.922;9.444;2023-07-29T00:52:09;4.53;;;2.60;;
7517;SDS011;3800;48.922;9.444;2023-07-29T00:54:38;3.70;;;3.40;;
7517;SDS011;3800;48.922;9.444;2023-07-29T00:57:08;4.50;;;3.77;;
7517;SDS011;3800;48.922;9.444;2023-07-29T00:59:36;7.17;;;3.70;;
7517;SDS011;3800;48.922;9.444;2023-07-29T01:02:04;4.77;;;3.90;;
7517;SDS011;3800;48.922;9.444;2023-07-29T01:04:32;4.30;;;3.90;;
7517;SDS011;3800;48.922;9.444;2023-07-29T01:07:06;4.77;;;3.90;;
7517;SDS011;3800;48.922;9.444;2023-07-29T01:09:41;3.70;;;3.40;;
7517;SDS011;3800;48.922;9.444;2023-07-29T01:15:19;5.10;;;3.27;;
7517;SDS011;3800;48.922;9.444;2023-07-29T01:17:52;3.10;;;2.80;;
7517;SDS011;3800;48.922;9.444;2023-07-29T01:20:21;4.37;;;3.67;;
7517;SDS011;3800;48.922;9.444;2023-07-29T01:22:50;3.43;;;3.10;;
7517;SDS011;3800;48.922;9.444;2023-07-29T01:25:18;3.30;;;2.63;;
7517;SDS011;3800;48.922;9.444;2023-07-29T01:27:48;6.27;;;3.00;;
7517;SDS011;3800;48.922;9.444;2023-07-29T01:30:15;3.27;;;2.60;;
7517;SDS011;3800;48.922;9.444;2023-07-29T01:32:53;2.77;;;2.57;;
7517;SDS011;3800;48.922;9.444;2023-07-29T01:35:42;3.73;;;2.17;;
7517;SDS011;3800;48.922;9.444;2023-07-29T01:40:44;6.90;;;2.40;;
7517;SDS011;3800;48.922;9.444;2023-07-29T01:43:12;2.83;;;2.57;;
7517;SDS011;3800;48.922;9.444;2023-07-29T01:45:41;3.23;;;2.33;;
7517;SDS011;3800;48.922;9.444;2023-07-29T01:48:09;2.43;;;2.23;;
7517;SDS011;3800;48.922;9.444;2023-07-29T01:50:37;3.93;;;1.90;;
7517;SDS011;3800;48.922;9.444;2023-07-29T01:53:05;3.67;;;2.17;;
7517;SDS011;3800;48.922;9.444;2023-07-29T01:55:34;2.30;;;1.77;;
7517;SDS011;3800;48.922;9.444;2023-07-29T01:58:03;3.87;;;1.67;;
7517;SDS011;3800;48.922;9.444;2023-07-29T02:00:31;3.60;;;1.70;;
7517;SDS011;3800;48.922;9.444;2023-07-29T02:02:59;2.03;;;1.50;;
7517;SDS011;3800;48.922;9.444;2023-07-29T02:05:27;2.13;;;1.63;;
7517;SDS011;3800;48.922;9.444;2023-07-29T02:07:56;3.33;;;1.67;;
7517;SDS011;3800;48.922;9.444;2023-07-29T02:10:24;3.10;;;1.67;;
7517;SDS011;3800;48.922;9.444;2023-07-29T02:12:52;1.93;;;1.63;;
7517;SDS011;3800;48.922;9.444;2023-07-29T02:15:21;2.93;;;1.80;;
7517;SDS011;3800;48.922;9.444;2023-07-29T02:17:50;1.70;;;1.60;;
7517;SDS011;3800;48.922;9.444;2023-07-29T02:20:19;4.30;;;1.73;;
7517;SDS011;3800;48.922;9.444;2023-07-29T02:22:47;2.27;;;1.60;;
7517;SDS011;3800;48.922;9.444;2023-07-29T02:25:16;2.47;;;1.73;;
7517;SDS011;3800;48.922;9.444;2023-07-29T02:27:45;1.40;;;1.30;;
7517;SDS011;3800;48.922;9.444;2023-07-29T02:30:13;1.97;;;1.50;;
7517;SDS011;3800;48.922;9.444;2023-07-29T02:32:41;1.97;;;1.73;;
7517;SDS011;3800;48.922;9.444;2023-07-29T02:35:09;2.23;;;1.60;;
7517;SDS011;3800;48.922;9.444;2023-07-29T02:37:38;7.73;;;1.60;;
7517;SDS011;3800;48.922;9.444;2023-07-29T02:40:06;1.50;;;1.40;;
7517;SDS011;3800;48.922;9.444;2023-07-29T02:42:35;2.13;;;1.63;;
7517;SDS011;3800;48.922;9.444;2023-07-29T02:45:03;2.63;;;1.30;;
7517;SDS011;3800;48.922;9.444;2023-07-29T02:47:32;1.57;;;1.47;;
7517;SDS011;3800;48.922;9.444;2023-07-29T02:50:00;2.50;;;1.53;;
7517;SDS011;3800;48.922;9.444;2023-07-29T02:52:29;1.70;;;1.37;;
7517;SDS011;3800;48.922;9.444;2023-07-29T02:54:57;2.27;;;1.30;;
7517;SDS011;3800;48.922;9.444;2023-07-29T02:57:26;2.50;;;1.40;;
7517;SDS011;3800;48.922;9.444;2023-07-29T02:59:54;2.67;;;1.57;;
7517;SDS011;3800;48.922;9.444;2023-07-29T03:02:22;2.27;;;1.50;;
7517;SDS011;3800;48.922;9.444;2023-07-29T03:04:51;1.90;;;1.60;;
7517;SDS011;3800;48.922;9.444;2023-07-29T03:07:20;1.87;;;1.70;;
7517;SDS011;3800;48.922;9.444;2023-07-29T03:09:49;2.53;;;1.53;;
7517;SDS011;3800;48.922;9.444;2023-07-29T03:12:17;2.07;;;1.47;;
7517;SDS011;3800;48.922;9.444;2023-07-29T03:14:47;2.67;;;1.57;;
7517;SDS011;3800;48.922;9.444;2023-07-29T03:17:14;1.70;;;1.60;;
7517;SDS011;3800;48.922;9.444;2023-07-29T03:19:43;2.73;;;1.77;;
7517;SDS011;3800;48.922;9.444;2023-07-29T03:22:11;1.70;;;1.60;;
7517;SDS011;3800;48.922;9.444;2023-07-29T03:24:39;2.00;;;1.90;;
7517;SDS011;3800;48.922;9.444;2023-07-29T03:27:08;7.43;;;1.70;;
7517;SDS011;3800;48.922;9.444;2023-07-29T03:29:37;1.53;;;1.43;;
7517;SDS011;3800;48.922;9.444;2023-07-29T03:32:05;1.93;;;1.47;;
7517;SDS011;3800;48.922;9.444;2023-07-29T03:34:33;1.83;;;1.60;;
7517;SDS011;3800;48.922;9.444;2023-07-29T03:37:02;2.40;;;1.70;;
7517;SDS011;3800;48.922;9.444;2023-07-29T03:39:30;1.97;;;1.60;;
7517;SDS011;3800;48.922;9.444;2023-07-29T03:41:58;2.00;;;1.80;;
7517;SDS011;3800;48.922;9.444;2023-07-29T03:44:27;4.37;;;1.90;;
7517;SDS011;3800;48.922;9.444;2023-07-29T03:46:55;2.23;;;1.97;;
7517;SDS011;3800;48.922;9.444;2023-07-29T03:49:24;2.87;;;1.77;;
7517;SDS011;3800;48.922;9.444;2023-07-29T03:51:53;2.27;;;1.70;;
7517;SDS011;3800;48.922;9.444;2023-07-29T03:54:21;2.10;;;1.80;;
7517;SDS011;3800;48.922;9.444;2023-07-29T03:56:50;3.17;;;2.03;;
7517;SDS011;3800;48.922;9.444;2023-07-29T03:59:19;2.50;;;2.10;;
7517;SDS011;3800;48.922;9.444;2023-07-29T04:01:47;5.63;;;2.10;;
7517;SDS011;3800;48.922;9.444;2023-07-29T04:04:15;2.57;;;2.27;;
7517;SDS011;3800;48.922;9.444;2023-07-29T04:06:44;1.90;;;1.80;;
7517;SDS011;3800;48.922;9.444;2023-07-29T04:09:13;1.87;;;1.70;;
7517;SDS011;3800;48.922;9.444;2023-07-29T04:11:41;2.90;;;1.97;;
7517;SDS011;3800;48.922;9.444;2023-07-29T04:14:09;4.50;;;2.10;;
7517;SDS011;3800;48.922;9.444;2023-07-29T04:16:38;2.73;;;1.97;;
7517;SDS011;3800;48.922;9.444;2023-07-29T04:19:06;2.53;;;1.83;;
7517;SDS011;3800;48.922;9.444;2023-07-29T04:21:35;2.93;;;2.23;;
7517;SDS011;3800;48.922;9.444;2023-07-29T04:24:04;2.53;;;2.03;;
7517;SDS011;3800;48.922;9.444;2023-07-29T04:26:32;1.97;;;1.73;;
7517;SDS011;3800;48.922;9.444;2023-07-29T04:29:00;3.17;;;2.33;;
7517;SDS011;3800;48.922;9.444;2023-07-29T04:31:29;2.57;;;2.37;;
7517;SDS011;3800;48.922;9.444;2023-07-29T04:33:57;2.80;;;1.90;;
7517;SDS011;3800;48.922;9.444;2023-07-29T04:36:25;2.37;;;2.10;;
7517;SDS011;3800;48.922;9.444;2023-07-29T04:38:53;2.20;;;2.00;;
7517;SDS011;3800;48.922;9.444;2023-07-29T04:41:22;4.10;;;2.23;;
7517;SDS011;3800;48.922;9.444;2023-07-29T04:43:51;3.63;;;2.20;;
7517;SDS011;3800;48.922;9.444;2023-07-29T04:46:19;3.57;;;2.10;;
7517;SDS011;3800;48.922;9.444;2023-07-29T04:48:47;2.30;;;2.10;;
7517;SDS011;3800;48.922;9.444;2023-07-29T04:51:16;2.70;;;2.50;;
7517;SDS011;3800;48.922;9.444;2023-07-29T04:53:45;3.10;;;2.13;;
7517;SDS011;3800;48.922;9.444;2023-07-29T04:56:13;3.37;;;2.20;;
7517;SDS011;3800;48.922;9.444;2023-07-29T04:58:42;2.67;;;2.07;;
7517;SDS011;3800;48.922;9.444;2023-07-29T05:01:10;5.43;;;2.20;;
7517;SDS011;3800;48.922;9.444;2023-07-29T05:03:38;2.73;;;2.20;;
7517;SDS011;3800;48.922;9.444;2023-07-29T05:06:07;4.63;;;2.63;;
7517;SDS011;3800;48.922;9.444;2023-07-29T05:08:35;3.23;;;2.23;;
7517;SDS011;3800;48.922;9.444;2023-07-29T05:11:03;4.07;;;3.03;;
7517;SDS011;3800;48.922;9.444;2023-07-29T05:13:31;4.40;;;2.60;;
7517;SDS011;3800;48.922;9.444;2023-07-29T05:16:00;3.33;;;3.03;;
7517;SDS011;3800;48.922;9.444;2023-07-29T05:18:28;4.10;;;2.80;;
7517;SDS011;3800;48.922;9.444;2023-07-29T05:20:56;5.47;;;2.67;;
7517;SDS011;3800;48.922;9.444;2023-07-29T05:23:25;4.53;;;3.07;;
7517;SDS011;3800;48.922;9.444;2023-07-29T05:25:53;3.33;;;2.70;;
7517;SDS011;3800;48.922;9.444;2023-07-29T05:28:22;5.07;;;3.00;;
7517;SDS011;3800;48.922;9.444;2023-07-29T05:30:50;3.07;;;2.60;;
7517;SDS011;3800;48.922;9.444;2023-07-29T05:33:18;5.40;;;2.70;;
7517;SDS011;3800;48.922;9.444;2023-07-29T05:35:47;2.80;;;2.50;;
7517;SDS011;3800;48.922;9.444;2023-07-29T05:38:15;3.10;;;2.27;;
7517;SDS011;3800;48.922;9.444;2023-07-29T05:40:43;2.60;;;2.40;;
7517;SDS011;3800;48.922;9.444;2023-07-29T05:43:11;3.30;;;2.73;;
7517;SDS011;3800;48.922;9.444;2023-07-29T05:45:40;3.03;;;2.73;;
7517;SDS011;3800;48.922;9.444;2023-07-29T05:48:09;2.90;;;2.60;;
7517;SDS011;3800;48.922;9.444;2023-07-29T05:50:37;2.60;;;2.40;;
7517;SDS011;3800;48.922;9.444;2023-07-29T05:53:05;3.00;;;2.70;;
7517;SDS011;3800;48.922;9.444;2023-07-29T05:55:34;3.23;;;2.40;;
7517;SDS011;3800;48.922;9.444;2023-07-29T05:58:02;4.10;;;2.03;;
7517;SDS011;3800;48.922;9.444;2023-07-29T06:00:31;2.60;;;2.30;;
7517;SDS011;3800;48.922;9.444;2023-07-29T06:02:59;3.03;;;2.30;;
7517;SDS011;3800;48.922;9.444;2023-07-29T06:05:28;3.87;;;2.53;;
7517;SDS011;3800;48.922;9.444;2023-07-29T06:07:56;3.03;;;2.40;;
7517;SDS011;3800;48.922;9.444;2023-07-29T06:10:25;3.43;;;2.00;;
7517;SDS011;3800;48.922;9.444;2023-07-29T06:12:54;4.27;;;2.20;;
7517;SDS011;3800;48.922;9.444;2023-07-29T06:15:22;2.40;;;2.20;;
7517;SDS011;3800;48.922;9.444;2023-07-29T06:17:50;5.67;;;2.50;;
7517;SDS011;3800;48.922;9.444;2023-07-29T06:20:18;3.80;;;2.30;;
7517;SDS011;3800;48.922;9.444;2023-07-29T06:22:47;3.50;;;2.50;;
7517;SDS011;3800;48.922;9.444;2023-07-29T06:25:15;3.00;;;2.37;;
7517;SDS011;3800;48.922;9.444;2023-07-29T06:27:43;2.60;;;2.40;;
7517;SDS011;3800;48.922;9.444;2023-07-29T06:30:11;2.63;;;2.43;;
7517;SDS011;3800;48.922;9.444;2023-07-29T06:32:40;2.40;;;2.20;;
7517;SDS011;3800;48.922;9.444;2023-07-29T06:35:08;2.97;;;2.27;;
7517;SDS011;3800;48.922;9.444;2023-07-29T06:37:36;2.87;;;2.57;;
7517;SDS011;3800;48.922;9.444;2023-07-29T06:40:05;2.60;;;2.40;;
7517;SDS011;3800;48.922;9.444;2023-07-29T06:42:33;3.60;;;2.60;;
7517;SDS011;3800;48.922;9.444;2023-07-29T06:45:02;4.70;;;2.60;;
7517;SDS011;3800;48.922;9.444;2023-07-29T06:47:31;2.70;;;2.50;;
7517;SDS011;3800;48.922;9.444;2023-07-29T06:49:59;2.47;;;2.27;;
7517;SDS011;3800;48.922;9.444;2023-07-29T06:52:27;2.97;;;2.33;;
7517;SDS011;3800;48.922;9.444;2023-07-29T06:54:55;3.43;;;2.23;;
7517;SDS011;3800;48.922;9.444;2023-07-29T06:57:24;3.93;;;2.40;;
7517;SDS011;3800;48.922;9.444;2023-07-29T06:59:53;2.00;;;1.90;;
7517;SDS011;3800;48.922;9.444;2023-07-29T07:02:21;2.17;;;1.90;;
7517;SDS011;3800;48.922;9.444;2023-07-29T07:04:49;2.40;;;2.17;;
7517;SDS011;3800;48.922;9.444;2023-07-29T07:07:17;2.33;;;2.10;;
7517;SDS011;3800;48.922;9.444;2023-07-29T07:09:46;2.90;;;2.10;;
7517;SDS011;3800;48.922;9.444;2023-07-29T07:12:14;2.10;;;1.90;;
7517;SDS011;3800;48.922;9.444;2023-07-29T07:14:43;3.27;;;2.00;;
7517;SDS011;3800;48.922;9.444;2023-07-29T07:17:11;2.20;;;2.00;;
7517;SDS011;3800;48.922;9.444;2023-07-29T07:19:39;2.73;;;1.90;;
7517;SDS011;3800;48.922;9.444;2023-07-29T07:22:07;1.97;;;1.80;;
7517;SDS011;3800;48.922;9.444;2023-07-29T07:24:37;2.07;;;1.60;;
7517;SDS011;3800;48.922;9.444;2023-07-29T07:27:05;3.87;;;2.00;;
7517;SDS011;3800;48.922;9.444;2023-07-29T07:29:34;2.43;;;1.93;;
7517;SDS011;3800;48.922;9.444;2023-07-29T07:32:03;3.67;;;2.10;;
7517;SDS011;3800;48.922;9.444;2023-07-29T07:34:30;2.60;;;2.27;;
7517;SDS011;3800;48.922;9.444;2023-07-29T07:36:59;4.07;;;2.27;;
7517;SDS011;3800;48.922;9.444;2023-07-29T07:39:27;4.10;;;2.30;;
7517;SDS011;3800;48.922;9.444;2023-07-29T07:41:55;2.97;;;2.20;;
7517;SDS011;3800;48.922;9.444;2023-07-29T07:44:23;2.60;;;2.40;;
7517;SDS011;3800;48.922;9.444;2023-07-29T07:46:52;2.77;;;2.40;;
7517;SDS011;3800;48.922;9.444;2023-07-29T07:49:21;3.17;;;2.20;;
7517;SDS011;3800;48.922;9.444;2023-07-29T07:51:49;2.00;;;1.90;;
7517;SDS011;3800;48.922;9.444;2023-07-29T07:54:18;4.10;;;2.50;;
7517;SDS011;3800;48.922;9.444;2023-07-29T07:56:47;2.93;;;2.30;;
7517;SDS011;3800;48.922;9.444;2023-07-29T07:59:15;5.30;;;2.30;;
7517;SDS011;3800;48.922;9.444;2023-07-29T08:01:43;7.80;;;2.23;;
7517;SDS011;3800;48.922;9.444;2023-07-29T08:04:12;2.70;;;2.17;;
7517;SDS011;3800;48.922;9.444;2023-07-29T08:06:40;4.33;;;2.07;;
7517;SDS011;3800;48.922;9.444;2023-07-29T08:09:09;4.60;;;2.70;;
7517;SDS011;3800;48.922;9.444;2023-07-29T08:11:38;2.63;;;2.40;;
7517;SDS011;3800;48.922;9.444;2023-07-29T08:14:06;4.73;;;3.93;;
7517;SDS011;3800;48.922;9.444;2023-07-29T08:16:34;3.50;;;2.50;;
7517;SDS011;3800;48.922;9.444;2023-07-29T08:19:03;6.13;;;2.20;;
7517;SDS011;3800;48.922;9.444;2023-07-29T08:21:31;2.70;;;2.30;;
7517;SDS011;3800;48.922;9.444;2023-07-29T08:24:00;6.40;;;2.27;;
7517;SDS011;3800;48.922;9.444;2023-07-29T08:26:29;3.93;;;2.30;;
7517;SDS011;3800;48.922;9.444;2023-07-29T08:28:57;2.40;;;2.20;;
7517;SDS011;3800;48.922;9.444;2023-07-29T08:31:25;3.93;;;2.20;;
7517;SDS011;3800;48.922;9.444;2023-07-29T08:33:54;2.87;;;2.00;;
7517;SDS011;3800;48.922;9.444;2023-07-29T08:36:23;2.40;;;2.20;;
7517;SDS011;3800;48.922;9.444;2023-07-29T08:38:51;3.80;;;2.00;;
7517;SDS011;3800;48.922;9.444;2023-07-29T08:41:26;2.00;;;1.80;;
7517;SDS011;3800;48.922;9.444;2023-07-29T08:43:58;2.17;;;1.80;;
7517;SDS011;3800;48.922;9.444;2023-07-29T08:46:39;1.90;;;1.70;;
7517;SDS011;3800;48.922;9.444;2023-07-29T08:49:07;3.63;;;2.10;;
7517;SDS011;3800;48.922;9.444;2023-07-29T08:51:35;2.67;;;1.47;;
7517;SDS011;3800;48.922;9.444;2023-07-29T08:54:04;2.40;;;1.70;;
7517;SDS011;3800;48.922;9.444;2023-07-29T08:56:32;2.43;;;1.97;;
7517;SDS011;3800;48.922;9.444;2023-07-29T08:59:01;1.83;;;1.60;;
7517;SDS011;3800;48.922;9.444;2023-07-29T09:01:29;2.90;;;1.87;;
7517;SDS011;3800;48.922;9.444;2023-07-29T09:03:57;4.00;;;1.97;;
7517;SDS011;3800;48.922;9.444;2023-07-29T09:06:26;3.03;;;2.00;;
7517;SDS011;3800;48.922;9.444;2023-07-29T09:08:55;3.07;;;1.70;;
7517;SDS011;3800;48.922;9.444;2023-07-29T09:11:24;2.23;;;1.63;;
7517;SDS011;3800;48.922;9.444;2023-07-29T09:13:52;1.93;;;1.70;;
7517;SDS011;3800;48.922;9.444;2023-07-29T09:16:20;2.70;;;1.60;;
7517;SDS011;3800;48.922;9.444;2023-07-29T09:18:49;3.63;;;1.60;;
7517;SDS011;3800;48.922;9.444;2023-07-29T09:21:18;1.60;;;1.50;;
7517;SDS011;3800;48.922;9.444;2023-07-29T09:23:50;1.87;;;1.67;;
7517;SDS011;3800;48.922;9.444;2023-07-29T09:26:23;2.00;;;1.70;;
7517;SDS011;3800;48.922;9.444;2023-07-29T09:28:55;2.03;;;1.60;;
7517;SDS011;3800;48.922;9.444;2023-07-29T09:31:25;3.43;;;1.80;;
7517;SDS011;3800;48.922;9.444;2023-07-29T09:33:55;1.80;;;1.50;;
7517;SDS011;3800;48.922;9.444;2023-07-29T09:36:25;2.10;;;1.60;;
7517;SDS011;3800;48.922;9.444;2023-07-29T09:38:54;2.30;;;1.80;;
7517;SDS011;3800;48.922;9.444;2023-07-29T09:41:23;1.83;;;1.70;;
7517;SDS011;3800;48.922;9.444;2023-07-29T09:43:55;2.90;;;1.53;;
7517;SDS011;3800;48.922;9.444;2023-07-29T09:46:23;2.17;;;1.60;;
7517;SDS011;3800;48.922;9.444;2023-07-29T09:48:53;2.73;;;1.80;;
7517;SDS011;3800;48.922;9.444;2023-07-29T09:51:20;1.97;;;1.77;;
7517;SDS011;3800;48.922;9.444;2023-07-29T09:53:49;2.53;;;1.83;;
7517;SDS011;3800;48.922;9.444;2023-07-29T09:56:17;2.77;;;1.50;;
7517;SDS011;3800;48.922;9.444;2023-07-29T09:58:46;1.90;;;1.40;;
7517;SDS011;3800;48.922;9.444;2023-07-29T10:01:14;2.00;;;1.47;;
7517;SDS011;3800;48.922;9.444;2023-07-29T10:03:44;2.20;;;1.50;;
7517;SDS011;3800;48.922;9.444;2023-07-29T10:06:12;1.90;;;1.70;;
7517;SDS011;3800;48.922;9.444;2023-07-29T10:08:40;2.50;;;1.60;;
7517;SDS011;3800;48.922;9.444;2023-07-29T10:11:10;1.73;;;1.47;;
7517;SDS011;3800;48.922;9.444;2023-07-29T10:13:38;1.50;;;1.30;;
7517;SDS011;3800;48.922;9.444;2023-07-29T10:16:06;2.67;;;1.50;;
7517;SDS011;3800;48.922;9.444;2023-07-29T10:18:34;6.93;;;1.53;;
7517;SDS011;3800;48.922;9.444;2023-07-29T10:21:03;2.57;;;1.27;;
7517;SDS011;3800;48.922;9.444;2023-07-29T10:23:35;7.60;;;1.80;;
7517;SDS011;3800;48.922;9.444;2023-07-29T10:26:02;2.60;;;1.37;;
7517;SDS011;3800;48.922;9.444;2023-07-29T10:28:30;3.13;;;1.30;;
7517;SDS011;3800;48.922;9.444;2023-07-29T10:30:59;3.80;;;1.30;;
7517;SDS011;3800;48.922;9.444;2023-07-29T10:33:27;3.47;;;1.77;;
7517;SDS011;3800;48.922;9.444;2023-07-29T10:35:55;5.37;;;2.10;;
7517;SDS011;3800;48.922;9.444;2023-07-29T10:38:23;4.27;;;1.77;;
7517;SDS011;3800;48.922;9.444;2023-07-29T10:40:52;2.43;;;1.93;;
7517;SDS011;3800;48.922;9.444;2023-07-29T10:43:25;7.83;;;2.30;;
7517;SDS011;3800;48.922;9.444;2023-07-29T10:45:53;4.70;;;2.30;;
7517;SDS011;3800;48.922;9.444;2023-07-29T10:53:53;4.30;;;3.47;;
7517;SDS011;3800;48.922;9.444;2023-07-29T10:56:27;4.90;;;3.33;;
7517;SDS011;3800;48.922;9.444;2023-07-29T10:59:00;4.67;;;4.17;;
7517;SDS011;3800;48.922;9.444;2023-07-29T11:01:29;5.93;;;3.60;;
7517;SDS011;3800;48.922;9.444;2023-07-29T11:04:28;6.33;;;3.57;;
7517;SDS011;3800;48.922;9.444;2023-07-29T11:09:51;4.80;;;4.03;;
7517;SDS011;3800;48.922;9.444;2023-07-29T11:15:03;3.70;;;3.40;;
7517;SDS011;3800;48.922;9.444;2023-07-29T11:17:31;5.53;;;3.87;;
7517;SDS011;3800;48.922;9.444;2023-07-29T11:20:00;5.73;;;3.53;;
7517;SDS011;3800;48.922;9.444;2023-07-29T11:22:29;4.27;;;3.50;;
7517;SDS011;3800;48.922;9.444;2023-07-29T11:24:57;3.60;;;3.30;;
7517;SDS011;3800;48.922;9.444;2023-07-29T11:27:25;3.40;;;3.10;;
7517;SDS011;3800;48.922;9.444;2023-07-29T11:29:56;3.30;;;3.00;;
7517;SDS011;3800;48.922;9.444;2023-07-29T11:32:27;5.83;;;2.67;;
7517;SDS011;3800;48.922;9.444;2023-07-29T11:34:55;12.63;;;2.77;;
7517;SDS011;3800;48.922;9.444;2023-07-29T11:37:24;2.50;;;2.30;;
7517;SDS011;3800;48.922;9.444;2023-07-29T11:39:53;3.27;;;2.40;;
7517;SDS011;3800;48.922;9.444;2023-07-29T11:42:21;2.20;;;2.00;;
7517;SDS011;3800;48.922;9.444;2023-07-29T11:44:49;2.80;;;2.50;;
7517;SDS011;3800;48.922;9.444;2023-07-29T11:47:18;2.37;;;2.17;;
7517;SDS011;3800;48.922;9.444;2023-07-29T11:49:47;2.63;;;2.27;;
7517;SDS011;3800;48.922;9.444;2023-07-29T11:52:15;2.27;;;2.07;;
7517;SDS011;3800;48.922;9.444;2023-07-29T11:54:46;2.10;;;2.00;;
7517;SDS011;3800;48.922;9.444;2023-07-29T11:57:14;2.70;;;2.00;;
7517;SDS011;3800;48.922;9.444;2023-07-29T11:59:42;2.57;;;2.00;;
7517;SDS011;3800;48.922;9.444;2023-07-29T12:02:12;2.10;;;1.90;;
7517;SDS011;3800;48.922;9.444;2023-07-29T12:04:40;2.03;;;1.83;;
7517;SDS011;3800;48.922;9.444;2023-07-29T12:07:09;2.57;;;1.40;;
7517;SDS011;3800;48.922;9.444;2023-07-29T12:09:37;2.33;;;1.90;;
7517;SDS011;3800;48.922;9.444;2023-07-29T12:12:06;1.90;;;1.60;;
7517;SDS011;3800;48.922;9.444;2023-07-29T12:14:34;2.13;;;1.40;;
7517;SDS011;3800;48.922;9.444;2023-07-29T12:17:03;1.90;;;1.70;;
7517;SDS011;3800;48.922;9.444;2023-07-29T12:19:32;2.77;;;1.70;;
7517;SDS011;3800;48.922;9.444;2023-07-29T12:22:01;3.47;;;1.70;;
7517;SDS011;3800;48.922;9.444;2023-07-29T12:24:30;2.40;;;1.90;;
7517;SDS011;3800;48.922;9.444;2023-07-29T12:26:59;1.60;;;1.50;;
7517;SDS011;3800;48.922;9.444;2023-07-29T12:29:27;2.17;;;1.70;;
7517;SDS011;3800;48.922;9.444;2023-07-29T12:31:57;1.77;;;1.60;;
7517;SDS011;3800;48.922;9.444;2023-07-29T12:34:26;1.70;;;1.60;;
7517;SDS011;3800;48.922;9.444;2023-07-29T12:36:55;2.17;;;1.70;;
7517;SDS011;3800;48.922;9.444;2023-07-29T12:39:26;2.10;;;1.70;;
7517;SDS011;3800;48.922;9.444;2023-07-29T12:41:55;2.03;;;1.70;;
7517;SDS011;3800;48.922;9.444;2023-07-29T12:44:23;2.37;;;1.90;;
7517;SDS011;3800;48.922;9.444;2023-07-29T12:46:51;2.20;;;2.00;;
7517;SDS011;3800;48.922;9.444;2023-07-29T12:49:19;2.43;;;1.83;;
7517;SDS011;3800;48.922;9.444;2023-07-29T12:51:48;2.57;;;1.67;;
7517;SDS011;3800;48.922;9.444;2023-07-29T12:54:17;2.50;;;1.80;;
7517;SDS011;3800;48.922;9.444;2023-07-29T12:56:45;2.27;;;1.80;;
7517;SDS011;3800;48.922;9.444;2023-07-29T12:59:13;4.27;;;2.30;;
7517;SDS011;3800;48.922;9.444;2023-07-29T13:01:41;2.17;;;1.77;;
7517;SDS011;3800;48.922;9.444;2023-07-29T13:04:10;2.97;;;1.90;;
7517;SDS011;3800;48.922;9.444;2023-07-29T13:06:39;2.50;;;1.97;;
7517;SDS011;3800;48.922;9.444;2023-07-29T13:09:07;1.77;;;1.63;;
7517;SDS011;3800;48.922;9.444;2023-07-29T13:11:35;3.83;;;1.70;;
7517;SDS011;3800;48.922;9.444;2023-07-29T13:14:04;2.10;;;1.90;;
7517;SDS011;3800;48.922;9.444;2023-07-29T13:16:32;2.60;;;1.70;;
7517;SDS011;3800;48.922;9.444;2023-07-29T13:19:01;2.30;;;2.10;;
7517;SDS011;3800;48.922;9.444;2023-07-29T13:21:30;1.80;;;1.70;;
7517;SDS011;3800;48.922;9.444;2023-07-29T13:23:58;2.87;;;1.90;;
7517;SDS011;3800;48.922;9.444;2023-07-29T13:26:26;2.40;;;1.73;;
7517;SDS011;3800;48.922;9.444;2023-07-29T13:28:55;2.00;;;1.80;;
7517;SDS011;3800;48.922;9.444;2023-07-29T13:31:24;2.20;;;2.00;;
7517;SDS011;3800;48.922;9.444;2023-07-29T13:33:52;2.63;;;1.80;;
7517;SDS011;3800;48.922;9.444;2023-07-29T13:36:20;2.73;;;1.80;;
7517;SDS011;3800;48.922;9.444;2023-07-29T13:38:48;2.27;;;1.73;;
7517;SDS011;3800;48.922;9.444;2023-07-29T13:41:17;2.97;;;1.90;;
7517;SDS011;3800;48.922;9.444;2023-07-29T13:43:45;1.80;;;1.70;;
7517;SDS011;3800;48.922;9.444;2023-07-29T13:46:13;3.37;;;1.97;;
7517;SDS011;3800;48.922;9.444;2023-07-29T13:48:41;4.80;;;1.70;;
7517;SDS011;3800;48.922;9.444;2023-07-29T13:51:10;2.80;;;2.00;;
7517;SDS011;3800;48.922;9.444;2023-07-29T13:53:39;2.67;;;1.70;;
7517;SDS011;3800;48.922;9.444;2023-07-29T13:56:07;2.93;;;1.60;;
7517;SDS011;3800;48.922;9.444;2023-07-29T13:58:35;3.20;;;1.80;;
7517;SDS011;3800;48.922;9.444;2023-07-29T14:01:04;2.67;;;1.87;;
7517;SDS011;3800;48.922;9.444;2023-07-29T14:03:33;2.87;;;1.90;;
7517;SDS011;3800;48.922;9.444;2023-07-29T14:06:01;2.30;;;1.93;;
7517;SDS011;3800;48.922;9.444;2023-07-29T14:08:29;3.63;;;1.83;;
7517;SDS011;3800;48.922;9.444;2023-07-29T14:10:57;3.50;;;1.80;;
7517;SDS011;3800;48.922;9.444;2023-07-29T14:13:26;2.20;;;2.00;;
7517;SDS011;3800;48.922;9.444;2023-07-29T14:15:54;2.00;;;1.80;;
7517;SDS011;3800;48.922;9.444;2023-07-29T14:18:22;4.60;;;2.00;;
7517;SDS011;3800;48.922;9.444;2023-07-29T14:20:50;4.73;;;4.33;;
7517;SDS011;3800;48.922;9.444;2023-07-29T14:23:19;4.23;;;2.33;;
7517;SDS011;3800;48.922;9.444;2023-07-29T14:25:47;1.83;;;1.60;;
7517;SDS011;3800;48.922;9.444;2023-07-29T14:28:15;2.93;;;1.63;;
7517;SDS011;3800;48.922;9.444;2023-07-29T14:30:44;2.03;;;1.63;;
7517;SDS011;3800;48.922;9.444;2023-07-29T14:33:12;2.50;;;1.60;;
7517;SDS011;3800;48.922;9.444;2023-07-29T14:35:40;1.53;;;1.43;;
7517;SDS011;3800;48.922;9.444;2023-07-29T14:38:08;1.70;;;1.60;;
7517;SDS011;3800;48.922;9.444;2023-07-29T14:40:37;3.23;;;1.60;;
7517;SDS011;3800;48.922;9.444;2023-07-29T14:43:05;2.23;;;1.90;;
7517;SDS011;3800;48.922;9.444;2023-07-29T14:45:34;3.10;;;1.60;;
7517;SDS011;3800;48.922;9.444;2023-07-29T14:48:02;1.90;;;1.77;;
7517;SDS011;3800;48.922;9.444;2023-07-29T14:50:31;2.77;;;1.90;;
7517;SDS011;3800;48.922;9.444;2023-07-29T14:52:59;2.83;;;1.90;;
7517;SDS011;3800;48.922;9.444;2023-07-29T14:55:27;2.90;;;2.63;;
7517;SDS011;3800;48.922;9.444;2023-07-29T14:57:56;4.07;;;1.93;;
7517;SDS011;3800;48.922;9.444;2023-07-29T15:00:24;2.10;;;1.90;;
7517;SDS011;3800;48.922;9.444;2023-07-29T15:02:52;1.90;;;1.70;;
7517;SDS011;3800;48.922;9.444;2023-07-29T15:05:21;3.77;;;1.90;;
7517;SDS011;3800;48.922;9.444;2023-07-29T15:07:49;6.07;;;2.00;;
7517;SDS011;3800;48.922;9.444;2023-07-29T15:10:18;2.07;;;1.70;;
7517;SDS011;3800;48.922;9.444;2023-07-29T15:12:46;2.10;;;1.83;;
7517;SDS011;3800;48.922;9.444;2023-07-29T15:15:14;3.23;;;1.90;;
7517;SDS011;3800;48.922;9.444;2023-07-29T15:17:43;1.80;;;1.70;;
7517;SDS011;3800;48.922;9.444;2023-07-29T15:20:11;2.50;;;2.10;;
7517;SDS011;3800;48.922;9.444;2023-07-29T15:22:40;4.50;;;2.20;;
7517;SDS011;3800;48.922;9.444;2023-07-29T15:25:08;2.37;;;1.73;;
7517;SDS011;3800;48.922;9.444;2023-07-29T15:27:37;3.20;;;2.00;;
7517;SDS011;3800;48.922;9.444;2023-07-29T15:30:06;3.03;;;2.27;;
7517;SDS011;3800;48.922;9.444;2023-07-29T15:32:34;2.17;;;1.97;;
7517;SDS011;3800;48.922;9.444;2023-07-29T15:35:03;2.10;;;1.90;;
7517;SDS011;3800;48.922;9.444;2023-07-29T15:37:31;2.73;;;2.20;;
7517;SDS011;3800;48.922;9.444;2023-07-29T15:39:59;2.13;;;1.93;;